Time;durP1;ratioP1;P1;durP2;ratioP2;P2;SDS_P1;SDS_P2;PMS_P1;PMS_P2;Temp;Humidity;BMP_temperature;BMP_pressure;BME280_temperature;BME280_humidity;BME280_pressure;Samples;Min_cycle;Max_cycle;Signal;HPM_P1;HPM_P2
2021/07/27 00:01:20;;;;;;;4.45;3.92;;;;;;;;;;5096116;28;20082;-59
2021/07/27 00:03:49;;;;;;;7.35;4.38;;;;;;;;;;5096544;28;20030;-59
2021/07/27 00:06:15;;;;;;;5.13;4.38;;;;;;;;;;5096877;28;20346;-59
2021/07/27 00:08:41;;;;;;;5.75;4.18;;;;;;;;;;5095531;28;20089;-59
2021/07/27 00:11:08;;;;;;;7.20;4.78;;;;;;;;;;5096951;28;20052;-59
2021/07/27 00:13:34;;;;;;;4.88;4.13;;;;;;;;;;5095577;28;20066;-59
2021/07/27 00:16:00;;;;;;;5.28;4.43;;;;;;;;;;5096954;28;20024;-59
2021/07/27 00:18:26;;;;;;;6.25;4.63;;;;;;;;;;5096098;28;20040;-59
2021/07/27 00:20:52;;;;;;;5.63;4.15;;;;;;;;;;5096237;28;20107;-59
2021/07/27 00:23:21;;;;;;;7.63;4.57;;;;;;;;;;5096244;28;20032;-59
2021/07/27 00:25:48;;;;;;;5.65;4.43;;;;;;;;;;5096441;28;20028;-59
2021/07/27 00:28:14;;;;;;;4.30;3.78;;;;;;;;;;5096371;28;20466;-59
2021/07/27 00:30:41;;;;;;;6.50;4.32;;;;;;;;;;5096345;28;20032;-59
2021/07/27 00:33:07;;;;;;;8.82;4.43;;;;;;;;;;5095156;28;20020;-59
2021/07/27 00:35:33;;;;;;;4.50;3.97;;;;;;;;;;5096261;28;20027;-59
2021/07/27 00:38:08;;;;;;;6.78;5.03;;;;;;;;;;5096025;28;20032;-59
2021/07/27 00:40:36;;;;;;;4.90;3.80;;;;;;;;;;5095085;28;20442;-59
2021/07/27 00:43:04;;;;;;;5.38;3.83;;;;;;;;;;5096741;28;20051;-59
2021/07/27 00:45:30;;;;;;;5.00;4.15;;;;;;;;;;5096101;28;20020;-59
2021/07/27 00:47:56;;;;;;;4.45;3.58;;;;;;;;;;5094794;28;20044;-59
2021/07/27 00:50:22;;;;;;;4.05;3.53;;;;;;;;;;5096788;28;20090;-59
2021/07/27 00:52:48;;;;;;;7.57;5.22;;;;;;;;;;5095267;28;20093;-59
2021/07/27 00:55:14;;;;;;;5.35;4.82;;;;;;;;;;5095482;28;20481;-59
2021/07/27 00:57:40;;;;;;;6.35;4.28;;;;;;;;;;5096300;28;20050;-59
2021/07/27 01:00:06;;;;;;;11.63;4.43;;;;;;;;;;5095833;28;20032;-59
2021/07/27 01:02:32;;;;;;;4.50;4.05;;;;;;;;;;5095745;28;20031;-59
2021/07/27 01:04:59;;;;;;;6.55;4.68;;;;;;;;;;5077611;28;20032;-59
2021/07/27 01:07:28;;;;;;;9.25;4.82;;;;;;;;;;5096131;28;20073;-59
2021/07/27 01:09:55;;;;;;;4.93;4.38;;;;;;;;;;5094264;28;20473;-59
2021/07/27 01:12:21;;;;;;;6.55;3.38;;;;;;;;;;5095253;28;20086;-59
2021/07/27 01:14:47;;;;;;;4.95;3.58;;;;;;;;;;5095460;28;20053;-59
2021/07/27 01:17:15;;;;;;;4.68;4.05;;;;;;;;;;5095474;28;20032;-59
2021/07/27 01:19:56;;;;;;;6.15;4.28;;;;;;;;;;5095826;28;20039;-59
2021/07/27 01:39:16;;;;;;;6.88;4.65;;;;;;;;;;5094950;28;20123;-59
2021/07/27 01:44:27;;;;;;;5.05;4.05;;;;;;;;;;5094061;28;20026;-59
2021/07/27 01:46:53;;;;;;;5.63;4.75;;;;;;;;;;5093903;28;20060;-59
2021/07/27 01:49:19;;;;;;;6.47;5.40;;;;;;;;;;5094839;28;20024;-59
2021/07/27 01:51:46;;;;;;;5.43;4.38;;;;;;;;;;5094357;28;20016;-59
2021/07/27 01:54:16;;;;;;;5.88;5.03;;;;;;;;;;5094664;28;20374;-59
2021/07/27 01:56:43;;;;;;;7.37;5.67;;;;;;;;;;5095624;28;20032;-59
2021/07/27 01:59:09;;;;;;;7.35;5.10;;;;;;;;;;5094624;28;20323;-59
2021/07/27 02:01:38;;;;;;;6.20;4.20;;;;;;;;;;5095531;28;20517;-59
2021/07/27 02:04:04;;;;;;;7.10;4.18;;;;;;;;;;5093341;28;20028;-59
2021/07/27 02:06:30;;;;;;;7.43;4.55;;;;;;;;;;5094762;28;20081;-59
2021/07/27 02:09:00;;;;;;;5.65;4.65;;;;;;;;;;5094483;28;20028;-59
2021/07/27 02:11:35;;;;;;;5.18;4.65;;;;;;;;;;5094946;28;20047;-59
2021/07/27 02:14:02;;;;;;;6.10;4.63;;;;;;;;;;5093079;28;20032;-59
2021/07/27 02:16:28;;;;;;;7.53;5.35;;;;;;;;;;5094583;28;20031;-59
2021/07/27 02:18:57;;;;;;;6.50;4.80;;;;;;;;;;5092878;28;20032;-59
2021/07/27 02:21:23;;;;;;;8.00;5.00;;;;;;;;;;5094836;28;20114;-59
2021/07/27 02:23:49;;;;;;;7.97;4.95;;;;;;;;;;5094299;28;20051;-59
2021/07/27 02:26:15;;;;;;;5.75;4.55;;;;;;;;;;5095020;28;20114;-59
2021/07/27 02:28:41;;;;;;;6.47;5.22;;;;;;;;;;5094164;28;20036;-59
2021/07/27 02:31:12;;;;;;;8.85;5.15;;;;;;;;;;5094881;28;20036;-59
2021/07/27 02:33:38;;;;;;;7.55;4.50;;;;;;;;;;5094511;28;20024;-59
2021/07/27 02:36:04;;;;;;;7.90;5.50;;;;;;;;;;5094892;28;20077;-59
2021/07/27 02:38:33;;;;;;;6.68;5.22;;;;;;;;;;5094764;28;20037;-57
2021/07/27 02:41:02;;;;;;;7.18;5.70;;;;;;;;;;5092772;28;20024;-56
2021/07/27 02:43:34;;;;;;;9.00;5.93;;;;;;;;;;5093944;28;20377;-56
2021/07/27 02:46:00;;;;;;;8.35;5.30;;;;;;;;;;5093919;28;20032;-56
2021/07/27 02:48:26;;;;;;;7.82;5.20;;;;;;;;;;5093879;28;20071;-56
2021/07/27 02:51:04;;;;;;;6.70;5.75;;;;;;;;;;5094176;28;20034;-56
2021/07/27 02:53:30;;;;;;;10.35;4.53;;;;;;;;;;5094142;28;20031;-56
2021/07/27 02:55:58;;;;;;;6.40;5.32;;;;;;;;;;5093812;28;20020;-56
2021/07/27 02:58:24;;;;;;;7.60;5.50;;;;;;;;;;5092483;28;20404;-57
2021/07/27 03:00:50;;;;;;;10.10;5.88;;;;;;;;;;5093747;28;20032;-57
2021/07/27 03:03:16;;;;;;;6.18;4.82;;;;;;;;;;5095640;28;20056;-56
2021/07/27 03:05:42;;;;;;;6.70;5.53;;;;;;;;;;5098033;28;20366;-56
2021/07/27 03:08:11;;;;;;;7.93;5.25;;;;;;;;;;5097217;28;20170;-56
2021/07/27 03:10:39;;;;;;;8.23;4.80;;;;;;;;;;5097626;28;20044;-56
2021/07/27 03:13:08;;;;;;;5.15;4.65;;;;;;;;;;5097866;28;20401;-56
2021/07/27 03:15:34;;;;;;;6.38;5.13;;;;;;;;;;5096511;28;20377;-56
2021/07/27 03:18:00;;;;;;;7.57;5.65;;;;;;;;;;5097616;28;20032;-56
2021/07/27 03:20:27;;;;;;;7.70;5.25;;;;;;;;;;5097719;28;20382;-56
2021/07/27 03:22:54;;;;;;;6.55;4.72;;;;;;;;;;5097284;28;20016;-56
2021/07/27 03:25:20;;;;;;;10.40;6.03;;;;;;;;;;5097917;28;20032;-56
2021/07/27 03:27:50;;;;;;;9.05;5.43;;;;;;;;;;5097582;28;20028;-56
2021/07/27 03:30:17;;;;;;;6.20;4.93;;;;;;;;;;5097812;28;20551;-56
2021/07/27 03:32:43;;;;;;;6.68;5.22;;;;;;;;;;5097514;28;20028;-56
2021/07/27 03:35:11;;;;;;;6.32;5.03;;;;;;;;;;5097547;28;20057;-57
2021/07/27 03:37:37;;;;;;;5.97;4.85;;;;;;;;;;5097390;28;20020;-56
2021/07/27 03:40:03;;;;;;;8.85;5.38;;;;;;;;;;5096044;28;20446;-57
2021/07/27 03:42:29;;;;;;;5.80;5.13;;;;;;;;;;5097683;28;20028;-56
2021/07/27 03:44:56;;;;;;;7.95;5.18;;;;;;;;;;5097828;28;20438;-56
2021/07/27 03:47:22;;;;;;;6.03;5.05;;;;;;;;;;5095655;28;20024;-56
2021/07/27 03:49:48;;;;;;;6.97;5.18;;;;;;;;;;5095960;28;20032;-56
2021/07/27 03:52:14;;;;;;;6.43;5.20;;;;;;;;;;5097838;28;20024;-56
2021/07/27 03:54:40;;;;;;;6.18;5.25;;;;;;;;;;5097088;28;20038;-56
2021/07/27 03:57:06;;;;;;;5.90;4.35;;;;;;;;;;5079007;28;20024;-56
2021/07/27 03:59:32;;;;;;;9.05;5.00;;;;;;;;;;5097477;28;20457;-56
2021/07/27 04:01:58;;;;;;;5.95;5.00;;;;;;;;;;5097515;28;20054;-56
2021/07/27 04:04:25;;;;;;;9.80;6.00;;;;;;;;;;5096959;28;20032;-56
2021/07/27 04:06:51;;;;;;;7.30;4.97;;;;;;;;;;5096636;28;20457;-56
2021/07/27 04:09:17;;;;;;;6.55;4.95;;;;;;;;;;5097273;28;20032;-56
2021/07/27 04:11:43;;;;;;;5.20;4.70;;;;;;;;;;5095867;28;20556;-57
2021/07/27 04:14:12;;;;;;;5.68;4.57;;;;;;;;;;5095111;28;20054;-56
2021/07/27 04:16:38;;;;;;;6.30;5.40;;;;;;;;;;5094205;28;20055;-57
2021/07/27 04:19:05;;;;;;;8.82;5.38;;;;;;;;;;5095705;28;20089;-56
2021/07/27 04:21:34;;;;;;;7.85;4.95;;;;;;;;;;5095469;28;20062;-56
2021/07/27 04:24:03;;;;;;;5.05;4.55;;;;;;;;;;5095286;28;20032;-56
2021/07/27 04:26:29;;;;;;;8.80;4.75;;;;;;;;;;5094351;28;20055;-56
2021/07/27 04:28:55;;;;;;;7.10;5.47;;;;;;;;;;5096113;28;20032;-56
2021/07/27 04:31:24;;;;;;;9.82;6.03;;;;;;;;;;5095858;28;20024;-56
2021/07/27 04:33:50;;;;;;;6.47;5.03;;;;;;;;;;5094002;28;20039;-56
2021/07/27 04:36:16;;;;;;;8.98;5.55;;;;;;;;;;5095258;28;20374;-56
2021/07/27 04:38:45;;;;;;;7.38;5.65;;;;;;;;;;5094995;28;20115;-56
2021/07/27 04:41:11;;;;;;;8.77;6.35;;;;;;;;;;5095037;28;20028;-56
2021/07/27 04:43:38;;;;;;;8.40;5.70;;;;;;;;;;5093797;28;20054;-56
2021/07/27 04:46:04;;;;;;;7.78;5.70;;;;;;;;;;5093822;28;20101;-56
2021/07/27 04:48:31;;;;;;;7.75;5.38;;;;;;;;;;5094612;28;20478;-56
2021/07/27 04:50:57;;;;;;;7.38;6.43;;;;;;;;;;5094945;28;20024;-56
2021/07/27 04:53:23;;;;;;;6.72;5.55;;;;;;;;;;5094309;28;20111;-56
2021/07/27 04:55:50;;;;;;;9.52;6.57;;;;;;;;;;5094160;28;20029;-56
2021/07/27 04:58:16;;;;;;;7.20;5.80;;;;;;;;;;5094717;28;20089;-57
2021/07/27 05:00:42;;;;;;;6.60;5.63;;;;;;;;;;5094861;28;20080;-56
2021/07/27 05:03:08;;;;;;;7.82;5.55;;;;;;;;;;5095361;28;20404;-56
2021/07/27 05:05:34;;;;;;;7.32;6.45;;;;;;;;;;5094706;28;20073;-56
2021/07/27 05:08:01;;;;;;;8.27;6.07;;;;;;;;;;5095461;28;20028;-56
2021/07/27 05:10:27;;;;;;;8.13;6.43;;;;;;;;;;5055282;28;1081646;-57
2021/07/27 05:12:53;;;;;;;11.02;6.43;;;;;;;;;;5095717;28;20038;-56
2021/07/27 05:15:19;;;;;;;6.78;5.90;;;;;;;;;;5094845;28;20028;-56
2021/07/27 05:17:46;;;;;;;11.80;6.55;;;;;;;;;;5095398;28;20020;-56
2021/07/27 05:20:14;;;;;;;6.40;5.60;;;;;;;;;;5095546;28;20470;-56
2021/07/27 05:22:43;;;;;;;7.00;6.22;;;;;;;;;;5094341;28;20038;-56
2021/07/27 05:25:09;;;;;;;7.57;6.25;;;;;;;;;;5093348;28;20059;-56
2021/07/27 05:27:36;;;;;;;7.28;5.65;;;;;;;;;;5077356;28;20081;-56
2021/07/27 05:30:02;;;;;;;7.50;5.75;;;;;;;;;;5094024;28;20114;-56
2021/07/27 05:32:28;;;;;;;7.40;5.72;;;;;;;;;;5094514;28;20123;-56
2021/07/27 05:34:54;;;;;;;9.00;6.07;;;;;;;;;;5094796;28;20458;-56
2021/07/27 05:37:20;;;;;;;8.10;5.40;;;;;;;;;;5093807;28;20028;-56
2021/07/27 05:39:46;;;;;;;8.65;5.90;;;;;;;;;;5095033;28;20115;-57
2021/07/27 05:42:12;;;;;;;6.05;4.90;;;;;;;;;;5095027;28;20073;-57
2021/07/27 05:44:41;;;;;;;7.75;4.85;;;;;;;;;;5093794;28;20151;-57
2021/07/27 05:47:07;;;;;;;7.68;5.28;;;;;;;;;;5095157;28;20024;-57
2021/07/27 05:49:35;;;;;;;6.72;5.40;;;;;;;;;;5094848;28;20039;-57
2021/07/27 05:52:01;;;;;;;6.82;5.35;;;;;;;;;;5094762;28;20484;-58
2021/07/27 05:54:28;;;;;;;15.93;6.10;;;;;;;;;;5094783;28;20028;-57
2021/07/27 05:56:55;;;;;;;10.82;5.43;;;;;;;;;;5094631;28;20408;-57
2021/07/27 05:59:21;;;;;;;7.68;6.18;;;;;;;;;;5094547;28;20028;-57
2021/07/27 06:01:47;;;;;;;7.32;5.68;;;;;;;;;;5095028;28;20026;-57
2021/07/27 06:04:13;;;;;;;6.90;5.35;;;;;;;;;;5094680;28;20028;-57
2021/07/27 06:06:39;;;;;;;9.52;5.57;;;;;;;;;;5094366;28;20026;-57
2021/07/27 06:09:06;;;;;;;6.32;4.65;;;;;;;;;;5076804;28;20059;-57
2021/07/27 06:11:33;;;;;;;6.07;5.47;;;;;;;;;;5093064;28;20048;-57
2021/07/27 06:14:03;;;;;;;9.00;5.35;;;;;;;;;;5094482;28;20065;-57
2021/07/27 06:16:29;;;;;;;;;;;;;;;;;;5095075;28;20020;-58
2021/07/27 06:18:55;;;;;;;6.82;5.15;;;;;;;;;;5092726;28;19919;-57
2021/07/27 06:21:21;;;;;;;5.18;4.65;;;;;;;;;;5094843;28;20051;-57
2021/07/27 06:23:47;;;;;;;7.97;5.47;;;;;;;;;;5093821;28;20089;-57
2021/07/27 06:26:14;;;;;;;8.93;4.90;;;;;;;;;;5093763;28;20465;-57
2021/07/27 06:28:40;;;;;;;5.38;4.65;;;;;;;;;;5094686;28;20115;-57
2021/07/27 06:31:11;;;;;;;8.38;6.10;;;;;;;;;;5093987;28;20028;-57
2021/07/27 06:33:39;;;;;;;6.43;5.30;;;;;;;;;;5094465;28;20134;-57
2021/07/27 06:36:05;;;;;;;6.38;4.93;;;;;;;;;;5094527;28;20020;-58
2021/07/27 06:38:31;;;;;;;16.65;5.60;;;;;;;;;;5093939;28;20050;-57
2021/07/27 06:40:57;;;;;;;7.78;4.75;;;;;;;;;;5092830;28;20020;-57
2021/07/27 06:43:23;;;;;;;7.45;4.70;;;;;;;;;;5094396;28;20020;-57
2021/07/27 06:45:56;;;;;;;4.45;3.72;;;;;;;;;;5094029;28;20016;-57
2021/07/27 06:48:22;;;;;;;6.65;5.05;;;;;;;;;;5094477;28;20404;-57
2021/07/27 06:50:48;;;;;;;8.43;5.05;;;;;;;;;;5094470;28;20020;-57
2021/07/27 06:53:14;;;;;;;6.00;5.00;;;;;;;;;;5094231;28;20111;-57
2021/07/27 06:55:44;;;;;;;7.43;4.35;;;;;;;;;;5093892;28;20028;-57
2021/07/27 06:58:10;;;;;;;7.07;5.05;;;;;;;;;;5093798;28;20039;-57
2021/07/27 07:00:39;;;;;;;6.95;5.25;;;;;;;;;;5093856;28;20024;-57
2021/07/27 07:03:05;;;;;;;5.75;4.60;;;;;;;;;;5094046;28;20162;-57
2021/07/27 07:05:31;;;;;;;6.20;4.57;;;;;;;;;;5093704;28;20031;-57
2021/07/27 07:07:57;;;;;;;7.93;4.72;;;;;;;;;;5093803;28;20032;-57
2021/07/27 07:10:23;;;;;;;6.05;4.60;;;;;;;;;;5093658;28;20020;-58
2021/07/27 07:12:49;;;;;;;6.10;4.55;;;;;;;;;;5094161;28;20020;-58
2021/07/27 07:15:15;;;;;;;14.77;5.35;;;;;;;;;;5094310;28;20024;-57
2021/07/27 07:17:41;;;;;;;7.15;5.30;;;;;;;;;;5093466;28;20039;-58
2021/07/27 07:20:07;;;;;;;7.32;5.30;;;;;;;;;;5093652;28;20377;-57
2021/07/27 07:22:35;;;;;;;5.28;4.78;;;;;;;;;;5092422;28;20039;-57
2021/07/27 07:25:01;;;;;;;7.82;4.20;;;;;;;;;;5093717;28;20091;-57
2021/07/27 07:27:27;;;;;;;6.47;4.57;;;;;;;;;;5093465;28;20024;-57
2021/07/27 07:29:54;;;;;;;5.75;4.25;;;;;;;;;;5094196;28;20111;-57
2021/07/27 07:32:20;;;;;;;7.47;4.70;;;;;;;;;;5093915;28;20117;-58
2021/07/27 07:34:46;;;;;;;4.75;4.00;;;;;;;;;;5093520;28;20161;-57
2021/07/27 07:37:12;;;;;;;5.68;4.18;;;;;;;;;;5091929;28;20061;-57
2021/07/27 07:39:38;;;;;;;6.35;4.88;;;;;;;;;;5093464;28;20035;-57
2021/07/27 07:42:05;;;;;;;5.90;4.30;;;;;;;;;;5076038;28;20024;-57
2021/07/27 07:44:31;;;;;;;7.30;4.85;;;;;;;;;;5093839;28;20020;-58
2021/07/27 07:46:56;;;;;;;5.05;3.95;;;;;;;;;;5093141;28;20105;-58
2021/07/27 07:49:22;;;;;;;5.55;4.35;;;;;;;;;;5095091;28;20028;-58
2021/07/27 07:51:50;;;;;;;5.20;4.18;;;;;;;;;;5097318;28;20417;-58
2021/07/27 07:54:16;;;;;;;9.23;4.70;;;;;;;;;;5097205;28;20038;-58
2021/07/27 07:56:43;;;;;;;6.30;4.47;;;;;;;;;;5097223;28;20024;-58
2021/07/27 07:59:09;;;;;;;5.50;4.07;;;;;;;;;;5096988;28;20028;-58
2021/07/27 08:01:35;;;;;;;6.60;4.82;;;;;;;;;;5097603;28;20028;-58
2021/07/27 08:04:01;;;;;;;5.22;4.57;;;;;;;;;;5096704;28;20497;-58
2021/07/27 08:06:29;;;;;;;5.22;3.83;;;;;;;;;;5096980;28;20081;-58
2021/07/27 08:08:55;;;;;;;3.90;3.42;;;;;;;;;;5097351;28;20024;-58
2021/07/27 08:11:21;;;;;;;5.63;4.35;;;;;;;;;;5096729;28;20100;-58
2021/07/27 08:13:52;;;;;;;6.88;4.15;;;;;;;;;;5096516;28;20020;-58
2021/07/27 08:16:18;;;;;;;4.78;4.10;;;;;;;;;;5096876;28;20039;-58
2021/07/27 08:18:44;;;;;;;7.18;4.47;;;;;;;;;;5096458;28;20028;-58
2021/07/27 08:21:10;;;;;;;6.60;4.72;;;;;;;;;;5097235;28;20031;-58
2021/07/27 08:23:44;;;;;;;9.10;4.68;;;;;;;;;;5096879;28;20051;-58
2021/07/27 08:26:10;;;;;;;4.40;3.78;;;;;;;;;;5096592;28;20028;-58
2021/07/27 08:28:36;;;;;;;5.03;4.53;;;;;;;;;;5096968;28;20343;-58
2021/07/27 08:31:04;;;;;;;6.15;4.75;;;;;;;;;;5095108;28;20032;-58
2021/07/27 08:33:30;;;;;;;5.55;4.13;;;;;;;;;;5096143;28;20110;-58
2021/07/27 08:35:57;;;;;;;6.05;3.92;;;;;;;;;;5096003;28;20115;-58
2021/07/27 08:38:23;;;;;;;4.40;3.13;;;;;;;;;;5095964;28;20032;-58
2021/07/27 08:40:50;;;;;;;5.53;4.25;;;;;;;;;;5096226;28;20028;-58
2021/07/27 08:43:19;;;;;;;5.13;3.78;;;;;;;;;;5096624;28;20059;-57
2021/07/27 08:45:48;;;;;;;6.43;4.72;;;;;;;;;;5096247;28;20523;-58
2021/07/27 08:48:15;;;;;;;4.95;3.78;;;;;;;;;;5094843;28;20024;-58
2021/07/27 08:50:42;;;;;;;5.70;4.15;;;;;;;;;;5096110;28;20107;-58
2021/07/27 08:53:08;;;;;;;4.97;4.25;;;;;;;;;;5096590;28;20074;-58
2021/07/27 08:55:34;;;;;;;5.88;4.63;;;;;;;;;;5095974;28;20073;-58
2021/07/27 08:58:01;;;;;;;5.57;4.18;;;;;;;;;;5095814;28;20031;-58
2021/07/27 09:00:27;;;;;;;6.28;4.20;;;;;;;;;;5094676;28;20017;-58
2021/07/27 09:02:53;;;;;;;6.15;4.78;;;;;;;;;;5095111;28;20358;-58
2021/07/27 09:05:20;;;;;;;5.45;4.28;;;;;;;;;;5095714;28;20024;-58
2021/07/27 09:07:46;;;;;;;5.22;4.72;;;;;;;;;;5094275;28;20028;-58
2021/07/27 09:10:16;;;;;;;5.30;4.43;;;;;;;;;;5095702;28;20035;-58
2021/07/27 09:12:56;;;;;;;5.95;4.35;;;;;;;;;;5095444;28;20035;-58
2021/07/27 09:15:23;;;;;;;6.13;4.97;;;;;;;;;;5094659;28;20020;-58
2021/07/27 09:17:56;;;;;;;4.47;3.67;;;;;;;;;;5095400;28;20020;-58
2021/07/27 09:20:26;;;;;;;6.28;4.80;;;;;;;;;;5094497;28;20082;-58
2021/07/27 09:22:52;;;;;;;5.80;4.32;;;;;;;;;;5094435;28;20450;-58
2021/07/27 09:25:19;;;;;;;4.53;3.95;;;;;;;;;;5096132;28;20074;-58
2021/07/27 09:27:44;;;;;;;5.95;4.28;;;;;;;;;;5093840;28;20043;-58
2021/07/27 09:30:21;;;;;;;4.85;4.13;;;;;;;;;;5095570;28;20027;-58
2021/07/27 09:32:48;;;;;;;6.25;3.83;;;;;;;;;;5095535;28;20066;-58
2021/07/27 09:35:14;;;;;;;5.85;4.90;;;;;;;;;;5095784;28;20032;-58
2021/07/27 09:37:40;;;;;;;5.07;4.03;;;;;;;;;;5095219;28;20028;-58
2021/07/27 09:40:06;;;;;;;9.07;4.30;;;;;;;;;;5095386;28;20036;-58
2021/07/27 09:42:33;;;;;;;3.40;3.10;;;;;;;;;;5094986;28;20069;-58
2021/07/27 09:44:59;;;;;;;5.40;3.95;;;;;;;;;;5094607;28;20016;-58
2021/07/27 09:47:25;;;;;;;4.90;3.60;;;;;;;;;;5094855;28;20055;-58
2021/07/27 09:49:54;;;;;;;4.38;3.88;;;;;;;;;;5094575;28;20020;-58
2021/07/27 09:52:20;;;;;;;4.68;3.72;;;;;;;;;;5094707;28;20453;-58
2021/07/27 09:54:46;;;;;;;5.88;4.70;;;;;;;;;;5094832;28;20020;-58
2021/07/27 09:57:14;;;;;;;5.35;3.95;;;;;;;;;;5094969;28;20073;-58
2021/07/27 09:59:48;;;;;;;5.82;4.55;;;;;;;;;;5094971;28;20489;-58
2021/07/27 10:02:16;;;;;;;4.05;3.58;;;;;;;;;;5095406;28;20346;-58
2021/07/27 10:04:46;;;;;;;6.45;4.10;;;;;;;;;;5094421;28;20466;-58
2021/07/27 10:07:12;;;;;;;5.67;4.10;;;;;;;;;;5094673;28;20458;-58
2021/07/27 10:09:38;;;;;;;4.28;3.40;;;;;;;;;;5094755;28;20032;-58
2021/07/27 10:12:08;;;;;;;5.15;4.25;;;;;;;;;;5094110;28;20359;-58
2021/07/27 10:14:44;;;;;;;5.18;3.83;;;;;;;;;;5094288;28;20024;-58
2021/07/27 10:17:10;;;;;;;5.75;4.00;;;;;;;;;;5094160;28;20073;-58
2021/07/27 10:19:40;;;;;;;7.13;4.03;;;;;;;;;;5094447;28;20070;-58
2021/07/27 10:22:07;;;;;;;4.82;3.83;;;;;;;;;;5094597;28;20334;-58
2021/07/27 10:24:41;;;;;;;5.05;2.80;;;;;;;;;;5094013;28;20119;-58
2021/07/27 10:27:09;;;;;;;4.03;3.00;;;;;;;;;;5094532;28;20404;-58
2021/07/27 10:29:35;;;;;;;5.07;3.90;;;;;;;;;;5094274;28;20059;-58
2021/07/27 10:32:11;;;;;;;4.28;3.38;;;;;;;;;;5094549;28;20020;-58
2021/07/27 10:34:40;;;;;;;6.93;3.65;;;;;;;;;;5094001;28;20484;-58
2021/07/27 10:37:07;;;;;;;4.45;3.03;;;;;;;;;;5093964;28;20024;-58
2021/07/27 10:39:33;;;;;;;4.15;3.47;;;;;;;;;;5092213;28;20035;-58
2021/07/27 10:42:07;;;;;;;4.97;3.55;;;;;;;;;;5094189;28;20365;-58
2021/07/27 10:44:36;;;;;;;4.03;3.25;;;;;;;;;;5093914;28;20028;-58
2021/07/27 10:47:03;;;;;;;5.10;3.60;;;;;;;;;;5093799;28;20024;-58
2021/07/27 10:49:29;;;;;;;4.07;3.25;;;;;;;;;;5093701;28;20454;-58
2021/07/27 10:52:03;;;;;;;3.75;2.85;;;;;;;;;;5093784;28;20527;-58
2021/07/27 10:54:29;;;;;;;4.93;2.80;;;;;;;;;;5093160;28;20020;-58
2021/07/27 10:57:05;;;;;;;5.10;2.83;;;;;;;;;;5094400;28;20070;-58
2021/07/27 10:59:32;;;;;;;4.95;3.40;;;;;;;;;;5093548;28;20036;-58
2021/07/27 11:02:01;;;;;;;4.30;2.63;;;;;;;;;;5094045;28;20035;-58
2021/07/27 11:04:28;;;;;;;5.03;3.17;;;;;;;;;;5093558;28;20018;-58
2021/07/27 11:06:54;;;;;;;4.53;3.67;;;;;;;;;;5093970;28;20106;-58
2021/07/27 11:09:20;;;;;;;6.65;3.60;;;;;;;;;;5093398;28;20034;-58
2021/07/27 11:11:47;;;;;;;3.78;2.88;;;;;;;;;;5094030;28;20370;-58
2021/07/27 11:14:20;;;;;;;3.22;2.60;;;;;;;;;;5093241;28;20039;-58
2021/07/27 11:16:46;;;;;;;4.05;3.38;;;;;;;;;;5093388;28;20046;-58
2021/07/27 11:19:23;;;;;;;4.55;2.95;;;;;;;;;;5093285;28;20085;-58
2021/07/27 11:21:49;;;;;;;4.85;3.28;;;;;;;;;;5093573;28;20039;-59
2021/07/27 11:24:15;;;;;;;4.18;2.85;;;;;;;;;;5094893;28;20470;-58
2021/07/27 11:26:41;;;;;;;3.50;2.90;;;;;;;;;;5097417;28;20024;-58
2021/07/27 11:29:11;;;;;;;3.55;2.92;;;;;;;;;;5097664;28;20031;-58
2021/07/27 11:31:47;;;;;;;3.95;2.72;;;;;;;;;;5097275;28;20087;-58
2021/07/27 11:34:13;;;;;;;3.10;2.50;;;;;;;;;;5097188;28;20031;-58
2021/07/27 11:36:39;;;;;;;6.22;3.63;;;;;;;;;;5097122;28;20103;-58
2021/07/27 11:39:06;;;;;;;4.60;3.28;;;;;;;;;;5097145;28;20125;-58
2021/07/27 11:41:32;;;;;;;5.88;3.53;;;;;;;;;;5097618;28;20032;-58
2021/07/27 11:43:58;;;;;;;3.30;2.47;;;;;;;;;;5097178;28;20018;-58
2021/07/27 11:46:31;;;;;;;3.03;2.45;;;;;;;;;;5097128;28;20024;-58
2021/07/27 11:48:57;;;;;;;4.25;3.22;;;;;;;;;;5096914;28;20036;-59
2021/07/27 11:51:35;;;;;;;3.13;2.35;;;;;;;;;;5096970;28;20470;-58
2021/07/27 11:54:01;;;;;;;4.72;2.72;;;;;;;;;;5096856;28;20020;-58
2021/07/27 11:56:27;;;;;;;3.50;2.30;;;;;;;;;;5096572;28;20016;-58
2021/07/27 11:59:00;;;;;;;2.97;2.05;;;;;;;;;;5095482;28;20028;-58
2021/07/27 12:01:39;;;;;;;3.03;2.17;;;;;;;;;;5096868;28;20028;-59
2021/07/27 12:04:05;;;;;;;3.15;2.65;;;;;;;;;;5097045;28;20047;-58
2021/07/27 12:06:31;;;;;;;3.70;2.47;;;;;;;;;;5096509;28;20048;-58
2021/07/27 12:08:59;;;;;;;4.18;2.28;;;;;;;;;;5096992;28;20067;-58
2021/07/27 12:11:25;;;;;;;3.22;2.35;;;;;;;;;;5096384;28;20040;-58
2021/07/27 12:13:51;;;;;;;3.92;2.58;;;;;;;;;;5096094;28;20031;-58
2021/07/27 12:16:17;;;;;;;2.92;2.05;;;;;;;;;;5096114;28;20024;-58
2021/07/27 12:18:42;;;;;;;3.85;2.28;;;;;;;;;;5096662;28;20028;-58
2021/07/27 12:21:08;;;;;;;3.63;2.65;;;;;;;;;;5096695;28;20099;-58
2021/07/27 12:23:34;;;;;;;2.95;2.15;;;;;;;;;;5096161;28;20020;-58
2021/07/27 12:26:06;;;;;;;4.22;2.20;;;;;;;;;;5096281;28;20055;-59
2021/07/27 12:28:33;;;;;;;3.90;2.33;;;;;;;;;;5096417;28;20032;-58
2021/07/27 12:30:59;;;;;;;4.38;1.98;;;;;;;;;;5095596;28;20025;-58
2021/07/27 12:33:25;;;;;;;4.05;2.47;;;;;;;;;;5096625;28;20493;-58
2021/07/27 12:35:51;;;;;;;3.97;2.63;;;;;;;;;;5095724;28;20089;-58
2021/07/27 12:38:17;;;;;;;3.25;2.47;;;;;;;;;;5096280;28;20052;-58
2021/07/27 12:40:43;;;;;;;6.28;2.95;;;;;;;;;;5095642;28;20484;-58
2021/07/27 12:43:09;;;;;;;4.88;2.17;;;;;;;;;;5096852;28;20028;-58
2021/07/27 12:45:35;;;;;;;3.50;2.47;;;;;;;;;;5095549;28;20115;-58
2021/07/27 12:48:01;;;;;;;4.18;2.70;;;;;;;;;;5096148;28;20066;-58
2021/07/27 12:50:27;;;;;;;4.57;2.78;;;;;;;;;;5096449;28;20074;-59
2021/07/27 12:52:53;;;;;;;5.97;2.67;;;;;;;;;;5096259;28;20024;-59
2021/07/27 12:55:19;;;;;;;3.70;2.53;;;;;;;;;;5095740;28;20481;-58
2021/07/27 12:57:45;;;;;;;4.47;3.20;;;;;;;;;;5096227;28;20347;-58
2021/07/27 13:00:12;;;;;;;6.43;2.90;;;;;;;;;;5095563;28;20036;-59
2021/07/27 13:02:38;;;;;;;2.42;2.20;;;;;;;;;;5095512;28;20401;-58
2021/07/27 13:05:04;;;;;;;4.22;2.50;;;;;;;;;;5096162;28;20115;-58
2021/07/27 13:07:30;;;;;;;2.80;2.10;;;;;;;;;;5095369;28;20020;-58
2021/07/27 13:09:57;;;;;;;3.15;2.30;;;;;;;;;;5095327;28;20496;-59
2021/07/27 13:12:23;;;;;;;4.15;2.63;;;;;;;;;;5095538;28;20129;-58
2021/07/27 13:14:49;;;;;;;3.03;2.40;;;;;;;;;;5095241;28;20055;-58
2021/07/27 13:17:15;;;;;;;3.20;2.45;;;;;;;;;;5095345;28;20021;-59
2021/07/27 13:19:41;;;;;;;3.50;2.60;;;;;;;;;;5095335;28;20134;-58
2021/07/27 13:22:07;;;;;;;3.92;3.25;;;;;;;;;;5095456;28;20376;-58
2021/07/27 13:24:33;;;;;;;5.47;3.53;;;;;;;;;;5095933;28;20020;-59
2021/07/27 13:27:00;;;;;;;3.78;3.25;;;;;;;;;;5095621;28;20020;-58
2021/07/27 13:29:26;;;;;;;4.43;3.15;;;;;;;;;;5095251;28;20034;-58
2021/07/27 13:31:52;;;;;;;4.10;3.00;;;;;;;;;;5095184;28;20052;-59
2021/07/27 13:34:22;;;;;;;3.83;3.00;;;;;;;;;;5095379;28;20442;-58
2021/07/27 13:36:48;;;;;;;3.40;2.42;;;;;;;;;;5095007;28;20142;-58
2021/07/27 13:39:14;;;;;;;4.07;3.08;;;;;;;;;;5095445;28;20036;-58
2021/07/27 13:41:40;;;;;;;4.28;2.80;;;;;;;;;;5095242;28;20311;-58
2021/07/27 13:44:06;;;;;;;4.22;2.85;;;;;;;;;;5095525;28;20020;-58
2021/07/27 13:46:35;;;;;;;3.47;2.60;;;;;;;;;;5094248;28;20116;-58
2021/07/27 13:49:01;;;;;;;4.20;3.22;;;;;;;;;;5095272;28;20039;-58
2021/07/27 13:51:27;;;;;;;3.42;2.92;;;;;;;;;;5095155;28;20047;-59
2021/07/27 13:53:56;;;;;;;4.05;3.13;;;;;;;;;;5094981;28;20024;-59
2021/07/27 13:56:22;;;;;;;4.05;3.17;;;;;;;;;;5094907;28;20525;-58
2021/07/27 13:58:48;;;;;;;4.38;3.60;;;;;;;;;;5094433;28;20119;-59
2021/07/27 14:01:14;;;;;;;4.28;2.97;;;;;;;;;;5095590;28;20020;-59
2021/07/27 14:03:41;;;;;;;4.15;3.28;;;;;;;;;;5094643;28;20031;-59
2021/07/27 14:06:07;;;;;;;5.20;3.22;;;;;;;;;;5093599;28;20111;-58
2021/07/27 14:08:33;;;;;;;4.55;3.13;;;;;;;;;;5094090;28;20024;-58
2021/07/27 14:10:59;;;;;;;4.38;3.00;;;;;;;;;;5094730;28;20100;-59
2021/07/27 14:13:25;;;;;;;6.35;3.55;;;;;;;;;;5094416;28;20020;-58
2021/07/27 14:15:52;;;;;;;3.60;2.88;;;;;;;;;;5094455;28;20031;-59
2021/07/27 14:18:18;;;;;;;7.50;3.72;;;;;;;;;;5094889;28;20028;-58
2021/07/27 14:20:44;;;;;;;5.82;3.85;;;;;;;;;;5094238;28;20032;-59
2021/07/27 14:23:10;;;;;;;4.35;3.35;;;;;;;;;;5094189;28;20028;-58
2021/07/27 14:25:36;;;;;;;5.47;3.80;;;;;;;;;;5094212;28;20062;-59
2021/07/27 14:28:02;;;;;;;9.88;3.80;;;;;;;;;;5094447;28;20361;-58
2021/07/27 14:30:28;;;;;;;5.55;3.60;;;;;;;;;;5093988;28;20059;-59
2021/07/27 14:32:54;;;;;;;6.38;3.72;;;;;;;;;;5094459;28;20024;-59
2021/07/27 14:35:20;;;;;;;3.92;3.28;;;;;;;;;;5094406;28;20035;-59
2021/07/27 14:37:47;;;;;;;5.75;4.07;;;;;;;;;;5094052;28;20027;-59
2021/07/27 14:40:13;;;;;;;3.97;3.35;;;;;;;;;;5092544;28;20028;-59
2021/07/27 14:42:39;;;;;;;6.70;3.90;;;;;;;;;;5094028;28;20016;-58
2021/07/27 14:45:05;;;;;;;5.32;3.85;;;;;;;;;;5094453;28;20082;-59
2021/07/27 14:47:31;;;;;;;5.07;3.40;;;;;;;;;;5093952;28;20100;-59
2021/07/27 14:49:57;;;;;;;4.88;3.78;;;;;;;;;;5094036;28;20060;-59
2021/07/27 14:52:23;;;;;;;3.78;3.08;;;;;;;;;;5092952;28;20450;-59
2021/07/27 14:54:49;;;;;;;5.15;4.28;;;;;;;;;;5093923;28;20024;-59
2021/07/27 14:57:15;;;;;;;5.00;3.90;;;;;;;;;;5093922;28;20078;-58
2021/07/27 14:59:41;;;;;;;5.97;3.35;;;;;;;;;;5092739;28;20115;-58
2021/07/27 15:02:07;;;;;;;4.45;3.53;;;;;;;;;;5093711;28;20055;-58